Time;durP1;ratioP1;P1;durP2;ratioP2;P2;SDS_P1;SDS_P2;PMS_P1;PMS_P2;Temp;Humidity;BMP_temperature;BMP_pressure;BME280_temperature;BME280_humidity;BME280_pressure;Samples;Min_cycle;Max_cycle;Signal;HPM_P1;HPM_P2
2022/09/25 00:01:05;;;;;;;15.10;13.53;;;13.70;99.90;;;;;;4996042;28;20236;-56
2022/09/25 00:03:33;;;;;;;15.30;13.70;;;13.70;99.90;;;;;;4997533;28;20233;-56
2022/09/25 00:06:03;;;;;;;13.57;12.23;;;13.70;99.90;;;;;;4989632;28;20240;-56
2022/09/25 00:08:34;;;;;;;12.37;11.07;;;13.60;99.90;;;;;;4992887;28;20581;-56
2022/09/25 00:11:06;;;;;;;12.10;10.90;;;13.60;99.90;;;;;;4996170;28;20617;-57
2022/09/25 00:13:35;;;;;;;12.07;10.87;;;13.60;99.90;;;;;;4993771;28;20284;-56
2022/09/25 00:16:04;;;;;;;11.30;10.20;;;13.50;99.90;;;;;;4990311;28;20276;-56
2022/09/25 00:21:18;;;;;;;10.10;9.20;;;13.50;99.90;;;;;;4993242;28;20292;-56
2022/09/25 00:23:48;;;;;;;9.50;8.60;;;13.60;99.90;;;;;;4992553;28;21446;-56
2022/09/25 00:26:17;;;;;;;8.70;7.90;;;13.60;99.90;;;;;;4994819;28;20236;-55
2022/09/25 00:28:45;;;;;;;8.73;7.90;;;13.60;99.90;;;;;;4992585;28;20338;-56
2022/09/25 00:31:23;;;;;;;8.63;7.83;;;13.50;99.90;;;;;;4999594;28;20763;-56
2022/09/25 00:33:51;;;;;;;8.77;7.97;;;13.50;99.90;;;;;;4999737;28;20237;-56
2022/09/25 00:36:20;;;;;;;8.23;7.53;;;13.50;99.90;;;;;;4989497;28;20670;-56
2022/09/25 00:38:49;;;;;;;7.70;7.00;;;13.40;99.90;;;;;;4992987;28;20252;-56
2022/09/25 00:41:19;;;;;;;8.83;7.83;;;13.40;99.90;;;;;;5001230;28;20677;-56
2022/09/25 00:43:49;;;;;;;8.00;7.30;;;13.50;99.90;;;;;;4989376;28;20241;-56
2022/09/25 00:46:22;;;;;;;7.90;7.20;;;13.40;99.90;;;;;;4989467;28;20566;-56
2022/09/25 00:48:54;;;;;;;7.43;6.73;;;13.40;99.90;;;;;;4993043;28;20247;-56
2022/09/25 00:51:27;;;;;;;7.00;6.37;;;13.40;99.90;;;;;;4992648;28;20224;-56
2022/09/25 00:54:00;;;;;;;7.37;6.77;;;13.40;99.90;;;;;;4992682;28;20228;-55
2022/09/25 00:56:32;;;;;;;7.10;6.40;;;13.30;99.90;;;;;;4988865;28;20357;-55
2022/09/25 00:59:00;;;;;;;7.37;6.67;;;13.30;99.90;;;;;;4992684;28;20232;-55
2022/09/25 01:01:29;;;;;;;6.90;6.30;;;13.30;99.90;;;;;;5001074;28;20712;-56
2022/09/25 01:03:57;;;;;;;7.50;6.90;;;13.30;99.90;;;;;;5011042;28;20239;-56
2022/09/25 01:06:27;;;;;;;8.00;7.17;;;13.30;99.90;;;;;;4992904;28;20229;-55
2022/09/25 01:08:57;;;;;;;8.23;7.50;;;13.30;99.90;;;;;;4996447;28;20233;-56
2022/09/25 01:11:25;;;;;;;7.53;6.83;;;13.30;99.90;;;;;;4995896;28;20224;-55
2022/09/25 01:13:57;;;;;;;7.90;7.20;;;13.30;99.90;;;;;;4997540;28;20241;-56
2022/09/25 01:16:32;;;;;;;7.23;6.53;;;13.30;99.90;;;;;;4992537;28;20218;-55
2022/09/25 01:19:12;;;;;;;8.70;7.00;;;13.30;99.90;;;;;;4996258;28;20276;-56
2022/09/25 01:21:46;;;;;;;7.70;7.00;;;13.20;99.90;;;;;;4996080;28;20244;-56
2022/09/25 01:24:43;;;;;;;7.63;6.93;;;13.20;99.90;;;;;;5001213;28;20248;-56
2022/09/25 01:27:31;;;;;;;8.53;7.70;;;13.20;99.90;;;;;;4997782;28;20279;-56
2022/09/25 01:30:07;;;;;;;7.67;6.93;;;13.20;99.90;;;;;;4996712;28;20268;-56
2022/09/25 01:32:43;;;;;;;7.87;7.17;;;13.20;99.90;;;;;;5013103;28;20603;-56
2022/09/25 01:35:18;;;;;;;7.50;6.80;;;13.20;99.90;;;;;;4999890;28;20233;-56
2022/09/25 01:37:54;;;;;;;7.53;6.83;;;13.20;99.90;;;;;;4995452;28;20238;-56
2022/09/25 01:40:27;;;;;;;7.73;7.03;;;13.20;99.90;;;;;;5001175;28;20635;-56
2022/09/25 01:43:05;;;;;;;7.70;7.00;;;13.20;99.90;;;;;;4999185;28;20240;-55
2022/09/25 01:45:40;;;;;;;7.60;6.90;;;13.20;99.90;;;;;;4996778;28;20234;-56
2022/09/25 01:48:11;;;;;;;7.63;6.93;;;13.20;99.90;;;;;;4995371;28;20313;-56
2022/09/25 01:50:43;;;;;;;8.40;7.60;;;13.20;99.90;;;;;;4995563;28;20233;-56
2022/09/25 01:53:16;;;;;;;8.60;7.83;;;13.10;99.90;;;;;;4987738;28;20226;-56
2022/09/25 01:55:47;;;;;;;8.20;7.50;;;13.10;99.90;;;;;;4995371;28;20617;-56
2022/09/25 01:58:22;;;;;;;7.07;6.47;;;13.00;99.90;;;;;;4995649;28;20239;-56
2022/09/25 02:00:55;;;;;;;8.50;7.70;;;13.10;99.90;;;;;;5012195;28;20240;-56
2022/09/25 02:03:29;;;;;;;8.40;7.60;;;13.10;99.90;;;;;;4996162;28;20269;-55
2022/09/25 02:06:03;;;;;;;7.90;7.20;;;13.20;99.90;;;;;;4995916;28;20231;-56
2022/09/25 02:08:36;;;;;;;8.53;7.73;;;13.10;99.90;;;;;;5001403;28;20225;-56
2022/09/25 02:11:06;;;;;;;8.73;7.93;;;13.10;99.90;;;;;;4998564;28;20232;-56
2022/09/25 02:13:40;;;;;;;8.87;8.07;;;13.10;99.90;;;;;;5003075;28;20704;-55
2022/09/25 02:16:13;;;;;;;8.40;7.60;;;13.10;99.90;;;;;;4990533;28;20630;-56
2022/09/25 02:21:35;;;;;;;8.33;7.63;;;13.00;99.90;;;;;;4994719;28;20231;-56
2022/09/25 02:24:11;;;;;;;7.77;7.07;;;13.00;99.90;;;;;;4995230;28;20635;-55
2022/09/25 02:26:39;;;;;;;7.30;6.70;;;13.00;99.90;;;;;;4990887;28;20228;-56
2022/09/25 02:29:08;;;;;;;6.33;5.83;;;13.00;99.90;;;;;;4996787;28;20242;-56
2022/09/25 02:31:41;;;;;;;6.40;5.80;;;13.10;99.90;;;;;;5013178;28;20247;-56
2022/09/25 02:34:10;;;;;;;6.23;5.73;;;13.00;99.90;;;;;;5014364;28;20229;-56
2022/09/25 02:36:43;;;;;;;6.87;6.17;;;12.90;99.90;;;;;;4993633;28;20228;-56
2022/09/25 02:39:15;;;;;;;7.10;6.50;;;12.90;99.90;;;;;;4986896;28;20236;-56
2022/09/25 02:42:06;;;;;;;8.80;7.90;;;12.90;99.90;;;;;;5002413;28;20277;-56
2022/09/25 02:44:48;;;;;;;10.20;9.20;;;12.90;99.90;;;;;;5007279;28;20236;-56
2022/09/25 02:47:27;;;;;;;10.37;9.37;;;12.90;99.90;;;;;;4993800;28;20221;-56
2022/09/25 02:50:04;;;;;;;10.53;9.53;;;12.90;99.90;;;;;;4994290;28;20232;-56
2022/09/25 02:52:36;;;;;;;12.17;10.97;;;12.90;99.90;;;;;;4994249;28;20225;-56
2022/09/25 02:55:11;;;;;;;15.13;11.93;;;13.00;99.90;;;;;;4991136;28;20279;-56
2022/09/25 02:57:45;;;;;;;14.10;11.80;;;13.00;99.90;;;;;;4994232;28;20244;-56
2022/09/25 03:00:14;;;;;;;11.83;10.63;;;12.90;99.90;;;;;;4995945;28;20279;-56
2022/09/25 03:02:45;;;;;;;12.93;11.60;;;12.90;99.90;;;;;;5013934;28;20228;-56
2022/09/25 03:05:20;;;;;;;12.03;10.83;;;12.90;99.90;;;;;;4999993;28;20241;-56
2022/09/25 03:10:36;;;;;;;15.53;11.17;;;12.90;99.90;;;;;;4994567;28;20236;-56
2022/09/25 03:13:19;;;;;;;12.63;10.63;;;12.90;99.90;;;;;;5001347;28;20233;-56
2022/09/25 03:15:52;;;;;;;11.20;9.50;;;12.90;99.90;;;;;;4996406;28;20237;-57
2022/09/25 03:18:22;;;;;;;11.97;9.40;;;12.90;99.90;;;;;;4993772;28;20283;-56
2022/09/25 03:20:50;;;;;;;20.83;9.13;;;12.90;99.90;;;;;;4993736;28;20229;-56
2022/09/25 03:23:18;;;;;;;12.30;8.60;;;12.90;99.90;;;;;;4993743;28;20283;-56
2022/09/25 03:25:47;;;;;;;10.70;8.87;;;13.00;99.90;;;;;;4990563;28;20264;-56
2022/09/25 03:28:18;;;;;;;10.43;8.40;;;13.00;99.90;;;;;;4992602;28;20243;-56
2022/09/25 03:30:57;;;;;;;11.03;7.90;;;13.00;99.90;;;;;;5000191;28;20244;-56
2022/09/25 03:33:28;;;;;;;9.20;7.20;;;13.00;99.90;;;;;;4974555;28;20680;-56
2022/09/25 03:36:04;;;;;;;9.90;7.27;;;13.00;99.90;;;;;;4981511;28;20240;-56
2022/09/25 03:38:35;;;;;;;8.47;7.50;;;12.90;99.90;;;;;;4993568;28;20252;-56
2022/09/25 03:41:07;;;;;;;10.73;7.60;;;13.00;99.90;;;;;;5001823;28;20251;-56
2022/09/25 03:43:36;;;;;;;8.23;6.97;;;12.90;99.90;;;;;;5000354;28;20233;-57
2022/09/25 03:46:04;;;;;;;8.87;7.37;;;12.90;99.90;;;;;;4990500;28;20236;-57
2022/09/25 03:48:34;;;;;;;8.20;7.10;;;13.00;99.90;;;;;;4993506;28;20319;-57
2022/09/25 03:51:03;;;;;;;8.27;7.17;;;12.90;99.90;;;;;;4993572;28;20567;-56
2022/09/25 03:53:32;;;;;;;9.37;7.47;;;12.90;99.90;;;;;;4993941;28;20237;-56
2022/09/25 03:56:00;;;;;;;9.47;8.23;;;12.90;99.90;;;;;;4991234;28;20294;-56
2022/09/25 03:58:29;;;;;;;11.97;8.13;;;12.90;99.90;;;;;;4993293;28;20241;-56
2022/09/25 04:00:57;;;;;;;11.60;8.70;;;12.90;99.90;;;;;;5009591;28;20246;-56
2022/09/25 04:03:28;;;;;;;10.67;8.60;;;12.80;99.90;;;;;;5012726;28;20247;-56
2022/09/25 04:05:58;;;;;;;13.80;8.97;;;12.80;99.90;;;;;;4996986;28;20240;-57
2022/09/25 04:08:27;;;;;;;13.30;8.87;;;12.80;99.90;;;;;;4992897;28;20221;-55
2022/09/25 04:10:58;;;;;;;11.77;10.27;;;12.90;99.90;;;;;;4995670;28;20233;-56
2022/09/25 04:13:28;;;;;;;13.17;9.53;;;12.90;99.90;;;;;;5001283;28;20224;-56
2022/09/25 04:15:58;;;;;;;10.63;9.10;;;12.80;99.90;;;;;;4990990;28;20232;-57
2022/09/25 04:18:30;;;;;;;11.80;10.50;;;12.90;99.90;;;;;;4993088;28;20228;-57
2022/09/25 04:21:00;;;;;;;14.20;10.00;;;12.80;99.90;;;;;;4993338;28;20236;-56
2022/09/25 04:23:28;;;;;;;11.57;10.30;;;12.80;99.90;;;;;;4993072;28;20236;-56
2022/09/25 04:25:56;;;;;;;13.20;10.67;;;12.80;99.90;;;;;;4988624;28;20233;-57
2022/09/25 04:28:25;;;;;;;13.80;10.67;;;12.80;99.90;;;;;;4992922;28;20248;-57
2022/09/25 04:30:53;;;;;;;14.57;10.87;;;12.70;99.90;;;;;;4992655;28;20255;-56
2022/09/25 04:36:08;;;;;;;14.47;10.97;;;12.70;99.90;;;;;;4989012;28;20240;-56
2022/09/25 04:38:36;;;;;;;11.50;10.00;;;12.80;99.90;;;;;;4993120;28;20605;-56
2022/09/25 04:41:06;;;;;;;12.73;10.03;;;12.80;99.90;;;;;;5004868;28;20243;-56
2022/09/25 04:43:34;;;;;;;14.70;9.70;;;12.80;99.90;;;;;;5003641;28;20232;-56
2022/09/25 04:46:04;;;;;;;11.37;9.57;;;12.70;99.90;;;;;;4998452;28;20240;-57
2022/09/25 04:48:33;;;;;;;10.30;8.90;;;12.70;99.90;;;;;;4996685;28;20646;-57
2022/09/25 04:51:01;;;;;;;12.00;8.50;;;12.70;99.90;;;;;;4998525;28;20230;-55
2022/09/25 04:53:33;;;;;;;8.97;7.50;;;12.70;99.90;;;;;;5002349;28;20692;-56
2022/09/25 04:56:04;;;;;;;8.97;8.00;;;12.70;99.90;;;;;;4992359;28;20243;-55
2022/09/25 04:58:32;;;;;;;10.73;8.10;;;12.70;99.90;;;;;;4996345;28;20696;-56
2022/09/25 05:01:02;;;;;;;10.13;7.67;;;12.70;99.90;;;;;;5003539;28;20239;-56
2022/09/25 05:03:30;;;;;;;11.30;8.27;;;12.70;99.90;;;;;;4996381;28;20232;-56
2022/09/25 05:05:59;;;;;;;9.53;7.10;;;12.90;99.90;;;;;;4992491;28;20319;-56
2022/09/25 05:08:27;;;;;;;9.10;6.80;;;12.80;99.90;;;;;;4996345;28;20225;-56
2022/09/25 05:10:57;;;;;;;9.73;7.20;;;12.80;99.90;;;;;;4998746;28;20240;-57
2022/09/25 05:13:26;;;;;;;9.20;6.73;;;12.70;99.90;;;;;;5004180;28;20221;-56
2022/09/25 05:15:55;;;;;;;9.43;7.23;;;12.80;99.90;;;;;;4994174;28;20585;-56
2022/09/25 05:18:24;;;;;;;9.00;6.63;;;12.70;99.90;;;;;;4995979;28;20242;-56
2022/09/25 05:20:53;;;;;;;9.70;6.63;;;12.70;99.90;;;;;;4996107;28;20236;-57
2022/09/25 05:23:22;;;;;;;9.53;6.53;;;12.70;99.90;;;;;;4996390;28;20247;-56
2022/09/25 05:25:55;;;;;;;11.43;6.37;;;12.70;99.90;;;;;;4991638;28;20230;-56
2022/09/25 05:28:24;;;;;;;8.03;6.40;;;12.70;99.90;;;;;;4995746;28;20249;-57
2022/09/25 05:30:52;;;;;;;11.77;6.83;;;12.70;99.90;;;;;;4996352;28;20639;-56
2022/09/25 05:33:22;;;;;;;9.30;6.40;;;12.80;99.90;;;;;;4995893;28;20320;-57
2022/09/25 05:35:50;;;;;;;9.53;6.33;;;12.90;99.90;;;;;;4993095;28;20241;-56
2022/09/25 05:38:18;;;;;;;6.90;5.77;;;12.80;99.90;;;;;;4996066;28;20226;-56
2022/09/25 05:40:47;;;;;;;7.80;6.27;;;12.90;99.90;;;;;;5003801;28;20247;-56
2022/09/25 05:43:15;;;;;;;9.23;6.67;;;12.80;99.90;;;;;;5003348;28;20228;-56
2022/09/25 05:45:52;;;;;;;8.17;6.67;;;12.90;99.90;;;;;;4994429;28;20244;-56
2022/09/25 05:48:20;;;;;;;8.70;6.20;;;12.90;99.90;;;;;;5000127;28;20301;-55
2022/09/25 05:50:51;;;;;;;7.57;6.50;;;12.90;99.90;;;;;;5005954;28;20284;-56
2022/09/25 05:53:20;;;;;;;6.43;5.67;;;12.90;99.90;;;;;;4996028;28;20236;-56
2022/09/25 05:55:51;;;;;;;7.23;5.57;;;13.00;99.90;;;;;;4991850;28;20245;-56
2022/09/25 05:58:19;;;;;;;7.00;6.30;;;13.00;99.90;;;;;;4995630;28;20225;-56
2022/09/25 06:00:49;;;;;;;9.50;6.00;;;13.00;99.90;;;;;;4994463;28;20251;-56
2022/09/25 06:03:18;;;;;;;7.10;5.53;;;12.90;99.90;;;;;;4998785;28;20700;-56
2022/09/25 06:05:46;;;;;;;7.60;6.03;;;12.90;99.90;;;;;;4991129;28;20308;-55
2022/09/25 06:08:15;;;;;;;6.37;5.30;;;12.90;99.90;;;;;;4995470;28;20240;-55
2022/09/25 06:10:43;;;;;;;10.30;6.10;;;13.00;99.90;;;;;;4995688;28;20232;-56
2022/09/25 06:13:11;;;;;;;6.97;5.60;;;13.00;99.90;;;;;;4994690;28;20229;-55
2022/09/25 06:15:40;;;;;;;5.70;5.10;;;12.90;99.90;;;;;;4995052;28;20263;-56
2022/09/25 06:18:10;;;;;;;5.77;5.20;;;13.00;99.90;;;;;;4995205;28;20677;-55
2022/09/25 06:20:38;;;;;;;7.63;5.60;;;13.00;99.90;;;;;;4994950;28;20243;-56
2022/09/25 06:23:06;;;;;;;7.83;5.57;;;13.00;99.90;;;;;;4995063;28;20245;-56
2022/09/25 06:25:35;;;;;;;8.50;5.40;;;13.00;99.90;;;;;;4992966;28;20228;-56
2022/09/25 06:28:04;;;;;;;7.80;5.23;;;13.00;99.90;;;;;;4998870;28;20725;-56
2022/09/25 06:30:34;;;;;;;6.10;5.33;;;13.00;99.90;;;;;;4994472;28;20244;-56
2022/09/25 06:33:05;;;;;;;5.23;4.57;;;13.00;99.90;;;;;;4995776;28;20234;-55
2022/09/25 06:35:35;;;;;;;7.43;4.93;;;13.00;99.90;;;;;;4996081;28;20229;-55
2022/09/25 06:38:04;;;;;;;7.67;5.37;;;13.00;99.90;;;;;;4994596;28;20909;-56
2022/09/25 06:40:33;;;;;;;10.50;5.10;;;13.20;99.90;;;;;;4995854;28;20221;-56
2022/09/25 06:43:02;;;;;;;6.77;4.67;;;13.20;99.90;;;;;;5001809;28;20233;-55
2022/09/25 06:45:32;;;;;;;5.53;4.30;;;13.20;99.90;;;;;;5002176;28;20701;-56
2022/09/25 06:48:01;;;;;;;6.93;4.60;;;13.20;99.90;;;;;;4996972;28;20229;-56
2022/09/25 06:50:33;;;;;;;7.40;4.80;;;13.10;99.90;;;;;;4994622;28;20732;-56
2022/09/25 06:53:02;;;;;;;5.10;3.80;;;13.00;99.90;;;;;;4994847;28;20582;-55
2022/09/25 06:55:31;;;;;;;6.17;4.37;;;13.00;99.90;;;;;;5001848;28;20233;-55
2022/09/25 06:57:59;;;;;;;6.27;4.20;;;13.00;99.90;;;;;;5000602;28;20272;-56
2022/09/25 07:00:28;;;;;;;8.93;4.17;;;13.00;99.90;;;;;;5012043;28;20248;-55
2022/09/25 07:05:43;;;;;;;5.10;4.00;;;13.10;99.90;;;;;;5001299;28;20225;-56
2022/09/25 07:08:15;;;;;;;5.70;4.57;;;13.00;99.90;;;;;;4986764;28;20229;-56
2022/09/25 07:10:48;;;;;;;7.70;4.40;;;13.10;99.90;;;;;;4994641;28;20226;-55
2022/09/25 07:13:16;;;;;;;12.50;5.90;;;13.00;99.90;;;;;;4994694;28;20320;-55
2022/09/25 07:15:51;;;;;;;6.23;4.83;;;13.10;99.90;;;;;;4998535;28;20233;-54
2022/09/25 07:18:19;;;;;;;6.37;4.90;;;13.20;99.90;;;;;;5000047;28;20584;-56
2022/09/25 07:20:47;;;;;;;6.83;5.30;;;13.10;99.90;;;;;;5002836;28;20590;-55
2022/09/25 07:23:18;;;;;;;7.93;4.87;;;13.10;99.90;;;;;;5009476;28;20234;-56
2022/09/25 07:25:47;;;;;;;8.43;5.43;;;13.00;99.90;;;;;;4989562;28;20249;-56
2022/09/25 07:28:17;;;;;;;6.63;5.47;;;13.00;99.90;;;;;;5001097;28;20250;-55
2022/09/25 07:30:47;;;;;;;5.93;5.27;;;13.10;99.90;;;;;;4997935;28;20705;-55
2022/09/25 07:33:16;;;;;;;8.23;5.80;;;13.20;99.90;;;;;;4993965;28;20303;-56
2022/09/25 07:35:44;;;;;;;6.13;5.40;;;13.10;99.90;;;;;;4990679;28;20925;-55
2022/09/25 07:38:12;;;;;;;6.37;5.67;;;13.10;99.90;;;;;;5001062;28;20684;-55
2022/09/25 07:40:41;;;;;;;8.20;5.87;;;13.10;99.90;;;;;;5006698;28;20243;-56
2022/09/25 07:43:09;;;;;;;6.43;5.70;;;13.10;99.90;;;;;;4997522;28;20613;-56
2022/09/25 07:45:37;;;;;;;8.33;6.53;;;13.10;99.90;;;;;;4996419;28;20697;-55
2022/09/25 07:48:06;;;;;;;10.30;6.43;;;13.10;99.90;;;;;;4994646;28;20233;-55
2022/09/25 07:50:34;;;;;;;10.50;7.57;;;13.10;99.90;;;;;;5001743;28;20258;-56
2022/09/25 07:53:02;;;;;;;9.47;7.20;;;13.10;99.90;;;;;;5002610;28;20279;-55
2022/09/25 07:55:30;;;;;;;10.07;6.90;;;13.10;99.90;;;;;;4989278;28;20806;-56
2022/09/25 07:57:59;;;;;;;8.03;6.87;;;13.10;99.90;;;;;;4992977;28;20244;-55
2022/09/25 08:00:27;;;;;;;11.37;8.23;;;13.20;99.90;;;;;;4997756;28;20588;-55
2022/09/25 08:02:56;;;;;;;8.20;7.20;;;13.10;99.90;;;;;;4999274;28;20224;-55
2022/09/25 08:05:25;;;;;;;9.57;8.13;;;13.10;99.90;;;;;;4990557;28;20260;-55
2022/09/25 08:07:53;;;;;;;10.43;7.70;;;13.20;99.90;;;;;;4994551;28;20243;-55
2022/09/25 08:10:21;;;;;;;9.93;8.50;;;13.30;99.90;;;;;;5000750;28;20693;-56
2022/09/25 08:12:49;;;;;;;8.17;7.37;;;13.20;99.90;;;;;;5001617;28;20311;-55
2022/09/25 08:15:19;;;;;;;8.57;7.27;;;13.20;99.90;;;;;;5008229;28;20227;-55
2022/09/25 08:17:47;;;;;;;9.33;7.63;;;13.20;99.90;;;;;;4998997;28;20240;-55
2022/09/25 08:20:15;;;;;;;13.40;9.27;;;13.20;99.90;;;;;;5006465;28;20701;-56
2022/09/25 08:22:43;;;;;;;9.37;8.33;;;13.20;99.90;;;;;;4999424;28;20223;-55
2022/09/25 08:25:11;;;;;;;10.23;8.20;;;13.20;99.90;;;;;;4995490;28;20872;-54
2022/09/25 08:27:40;;;;;;;13.87;9.27;;;13.30;99.90;;;;;;4995258;28;20311;-55
2022/09/25 08:30:10;;;;;;;9.27;8.30;;;13.20;99.90;;;;;;4999589;28;20240;-56
2022/09/25 08:32:40;;;;;;;9.63;8.60;;;13.30;99.90;;;;;;4999541;28;20643;-55
2022/09/25 08:35:08;;;;;;;10.70;8.60;;;13.40;99.90;;;;;;4996470;28;20823;-55
2022/09/25 08:37:40;;;;;;;10.33;8.70;;;13.30;99.90;;;;;;4999540;28;20287;-56
2022/09/25 08:40:17;;;;;;;13.23;8.70;;;13.30;99.90;;;;;;5002650;28;20228;-56
2022/09/25 08:42:48;;;;;;;10.83;8.63;;;13.30;99.90;;;;;;5002624;28;20236;-56
2022/09/25 08:51:07;;;;;;;11.00;8.90;;;13.30;99.90;;;;;;5006936;28;20236;-55
2022/09/25 08:53:37;;;;;;;11.47;9.17;;;13.20;99.90;;;;;;5003441;28;20235;-55
2022/09/25 08:56:16;;;;;;;15.30;9.10;;;13.20;99.90;;;;;;5005793;28;20555;-55
2022/09/25 08:58:54;;;;;;;12.73;9.03;;;13.30;99.90;;;;;;5001015;28;20234;-55
2022/09/25 09:01:26;;;;;;;12.93;9.83;;;13.20;99.90;;;;;;5002149;28;20221;-55
2022/09/25 09:04:04;;;;;;;10.90;9.07;;;13.30;99.90;;;;;;5007453;28;20312;-55
2022/09/25 09:06:33;;;;;;;11.13;9.63;;;13.30;99.90;;;;;;4995998;28;20235;-56
2022/09/25 09:09:06;;;;;;;10.60;9.47;;;13.30;99.90;;;;;;4998974;28;20233;-56
2022/09/25 09:11:39;;;;;;;13.30;9.90;;;13.30;99.90;;;;;;5004654;28;20734;-55
2022/09/25 09:14:14;;;;;;;10.47;9.30;;;13.40;99.90;;;;;;5013825;28;20708;-55
2022/09/25 09:16:46;;;;;;;12.73;8.97;;;13.50;99.90;;;;;;5003009;28;20224;-56
2022/09/25 09:19:16;;;;;;;10.57;9.40;;;13.40;99.90;;;;;;5007055;28;20228;-55
2022/09/25 09:21:48;;;;;;;10.60;8.97;;;13.50;99.90;;;;;;4999358;28;20240;-55
2022/09/25 09:24:18;;;;;;;10.17;8.67;;;13.40;99.90;;;;;;4999235;28;20228;-55
2022/09/25 09:27:14;;;;;;;10.60;8.90;;;13.40;99.90;;;;;;4995526;28;20604;-55
2022/09/25 09:30:06;;;;;;;9.97;8.33;;;13.50;99.90;;;;;;4992047;28;20236;-55
2022/09/25 09:32:48;;;;;;;10.23;9.03;;;13.40;99.90;;;;;;4988599;28;20771;-55
2022/09/25 09:35:29;;;;;;;10.63;8.27;;;13.50;99.90;;;;;;4992114;28;20225;-55
2022/09/25 09:38:13;;;;;;;10.70;8.33;;;13.50;99.90;;;;;;4999180;28;20233;-55
2022/09/25 09:41:01;;;;;;;12.43;8.43;;;13.60;99.90;;;;;;4998670;28;20779;-55
2022/09/25 09:43:46;;;;;;;10.83;8.20;;;13.60;99.90;;;;;;4999882;28;20316;-54
2022/09/25 09:46:20;;;;;;;9.23;8.20;;;13.50;99.90;;;;;;4990531;28;20620;-56
2022/09/25 09:48:59;;;;;;;9.60;7.80;;;13.60;99.90;;;;;;4995303;28;20302;-55
2022/09/25 09:51:33;;;;;;;8.83;7.37;;;13.60;99.90;;;;;;4997028;28;20226;-55
2022/09/25 09:54:09;;;;;;;10.33;6.70;;;13.60;99.90;;;;;;4995668;28;20218;-55
2022/09/25 09:56:40;;;;;;;8.90;6.27;;;13.50;99.90;;;;;;4991535;28;20589;-55
2022/09/25 09:59:16;;;;;;;7.30;6.37;;;13.50;99.90;;;;;;4995275;28;20589;-55
2022/09/25 10:01:49;;;;;;;6.40;5.73;;;13.50;99.90;;;;;;5005147;28;20244;-55
2022/09/25 10:04:20;;;;;;;6.93;5.63;;;13.60;99.90;;;;;;5008133;28;20631;-56
2022/09/25 10:06:55;;;;;;;6.93;5.43;;;13.60;99.90;;;;;;4999991;28;20225;-55
2022/09/25 10:09:24;;;;;;;7.33;5.80;;;13.70;99.90;;;;;;5007782;28;20244;-55
2022/09/25 10:12:00;;;;;;;8.93;5.80;;;13.70;99.90;;;;;;5001776;28;20243;-55
2022/09/25 10:14:33;;;;;;;7.57;5.27;;;13.80;99.90;;;;;;5006744;28;20244;-54
2022/09/25 10:17:03;;;;;;;5.67;4.87;;;13.70;99.90;;;;;;4997702;28;20234;-53
2022/09/25 10:19:43;;;;;;;5.77;4.37;;;13.80;99.90;;;;;;5001172;28;20229;-55
2022/09/25 10:22:16;;;;;;;6.03;4.30;;;13.80;99.90;;;;;;4995325;28;20241;-55
2022/09/25 10:24:54;;;;;;;5.43;4.10;;;13.80;99.90;;;;;;4994251;28;20609;-55
2022/09/25 10:27:30;;;;;;;5.40;4.27;;;13.90;99.90;;;;;;4998198;28;20237;-55
2022/09/25 10:30:20;;;;;;;5.47;3.87;;;13.90;99.90;;;;;;4994529;28;20596;-55
2022/09/25 10:33:00;;;;;;;6.63;3.70;;;14.00;99.90;;;;;;4996451;28;20592;-56
2022/09/25 10:35:41;;;;;;;6.13;3.30;;;14.00;99.90;;;;;;4991171;28;20711;-56
2022/09/25 10:38:34;;;;;;;4.73;2.97;;;13.90;99.90;;;;;;4996882;28;20232;-56
2022/09/25 10:41:06;;;;;;;5.43;2.87;;;13.90;99.90;;;;;;5007953;28;20707;-55
2022/09/25 10:43:34;;;;;;;5.47;2.60;;;13.90;99.90;;;;;;5007959;28;20628;-56
2022/09/25 10:50:09;;;;;;;4.13;2.93;;;13.90;99.90;;;;;;5008045;28;20228;-56
2022/09/25 10:52:06;;;;;;;4.87;2.87;;;13.80;99.90;;;;;;4998445;28;20238;-56
2022/09/25 10:54:36;;;;;;;4.73;3.00;;;13.80;99.90;;;;;;4994304;28;20229;-55
2022/09/25 10:57:17;;;;;;;4.10;2.40;;;13.90;99.90;;;;;;5001274;28;20221;-55
2022/09/25 10:59:48;;;;;;;5.40;2.90;;;13.90;99.90;;;;;;5013775;28;20601;-56
2022/09/25 11:02:34;;;;;;;3.67;2.33;;;13.80;99.90;;;;;;5009194;28;20232;-55
2022/09/25 11:05:03;;;;;;;5.93;2.77;;;13.90;99.90;;;;;;4978783;28;20240;-54
2022/09/25 11:07:33;;;;;;;4.57;2.17;;;13.90;99.90;;;;;;5007202;28;20225;-56
2022/09/25 11:10:03;;;;;;;6.47;2.33;;;13.90;99.90;;;;;;4997871;28;20272;-56
2022/09/25 11:12:32;;;;;;;6.93;2.13;;;13.90;99.90;;;;;;5004524;28;20259;-55
2022/09/25 11:15:04;;;;;;;2.93;2.00;;;13.90;99.90;;;;;;5007020;28;20244;-54
2022/09/25 11:17:37;;;;;;;2.93;1.90;;;14.00;99.90;;;;;;5009335;28;20223;-56
2022/09/25 11:20:21;;;;;;;5.27;2.50;;;14.00;99.90;;;;;;5010812;28;20236;-55
2022/09/25 11:22:56;;;;;;;5.07;2.17;;;14.00;99.90;;;;;;4997657;28;20337;-55
2022/09/25 11:25:33;;;;;;;4.60;2.20;;;14.00;99.90;;;;;;4994402;28;20225;-55
2022/09/25 11:28:10;;;;;;;2.47;1.73;;;14.00;99.90;;;;;;5001342;28;20248;-55
2022/09/25 11:30:43;;;;;;;3.17;2.20;;;14.10;99.90;;;;;;4995330;28;20230;-56
2022/09/25 11:33:17;;;;;;;3.27;2.13;;;14.20;99.90;;;;;;4983487;28;20234;-56
2022/09/25 11:35:53;;;;;;;3.17;1.93;;;14.30;99.90;;;;;;4980162;28;20236;-56
2022/09/25 11:41:25;;;;;;;4.63;2.00;;;14.30;99.90;;;;;;4983979;28;20222;-56
2022/09/25 11:44:13;;;;;;;3.23;1.87;;;14.30;99.90;;;;;;4989360;28;20226;-56
2022/09/25 11:46:49;;;;;;;4.03;2.10;;;14.40;99.90;;;;;;4972248;28;20226;-55
2022/09/25 11:49:21;;;;;;;4.87;2.10;;;14.50;99.90;;;;;;4969864;28;20268;-56
2022/09/25 11:52:21;;;;;;;3.00;1.60;;;14.40;99.90;;;;;;4983719;28;20332;-55
2022/09/25 11:55:23;;;;;;;4.80;1.80;;;14.40;99.90;;;;;;4978423;28;20226;-54
2022/09/25 11:58:03;;;;;;;2.63;1.77;;;14.50;99.90;;;;;;4957186;28;20245;-55
2022/09/25 12:00:39;;;;;;;3.20;1.83;;;14.60;99.90;;;;;;4995248;28;20240;-55
2022/09/25 12:03:34;;;;;;;3.80;1.50;;;14.70;99.90;;;;;;5004763;28;20594;-55
2022/09/25 12:06:27;;;;;;;4.67;1.60;;;14.90;99.90;;;;;;5006845;28;20240;-56
2022/09/25 12:09:10;;;;;;;3.83;1.57;;;15.00;99.90;;;;;;5012400;28;20225;-55
2022/09/25 12:11:48;;;;;;;2.83;1.53;;;15.10;99.90;;;;;;4997796;28;20221;-55
2022/09/25 12:14:25;;;;;;;6.87;1.87;;;15.20;99.90;;;;;;5008790;28;20225;-55
2022/09/25 12:17:01;;;;;;;6.67;1.57;;;15.40;99.90;;;;;;5004706;28;20228;-55
2022/09/25 12:19:42;;;;;;;4.03;1.20;;;15.50;99.90;;;;;;5001400;28;20224;-55
2022/09/25 12:22:18;;;;;;;4.57;1.43;;;15.70;99.90;;;;;;4996269;28;20229;-56
2022/09/25 12:24:55;;;;;;;5.23;1.40;;;15.80;99.90;;;;;;5007246;28;20702;-56
2022/09/25 12:27:40;;;;;;;4.07;1.40;;;15.80;99.90;;;;;;5004274;28;20631;-56
2022/09/25 12:30:17;;;;;;;2.67;1.00;;;15.90;99.90;;;;;;5004001;28;20322;-55
2022/09/25 12:33:11;;;;;;;2.10;1.13;;;15.90;99.90;;;;;;5001028;28;20244;-55
2022/09/25 12:35:46;;;;;;;3.90;1.00;;;15.80;99.90;;;;;;4993159;28;20222;-55
2022/09/25 12:38:24;;;;;;;4.00;1.00;;;15.80;99.90;;;;;;4994100;28;20578;-55
2022/09/25 12:40:57;;;;;;;5.03;1.20;;;16.00;99.90;;;;;;4996056;28;20232;-56
2022/09/25 12:43:32;;;;;;;2.70;1.00;;;16.20;99.90;;;;;;5012292;28;20221;-55
2022/09/25 12:46:09;;;;;;;4.57;1.20;;;16.20;99.90;;;;;;4992109;28;20903;-54
2022/09/25 12:48:43;;;;;;;4.47;1.17;;;16.20;99.90;;;;;;4987762;28;20229;-55
2022/09/25 12:51:16;;;;;;;4.13;1.00;;;16.20;99.90;;;;;;4988087;28;20233;-56
2022/09/25 12:53:49;;;;;;;2.93;1.23;;;16.30;99.90;;;;;;4987686;28;20732;-56
2022/09/25 12:56:23;;;;;;;5.80;1.20;;;16.20;99.90;;;;;;4986965;28;20225;-56
2022/09/25 12:59:06;;;;;;;3.50;1.10;;;16.30;99.90;;;;;;4995933;28;20582;-55
2022/09/25 13:01:45;;;;;;;3.73;0.97;;;16.40;99.90;;;;;;4988616;28;20236;-56
2022/09/25 13:04:37;;;;;;;7.53;1.27;;;16.40;99.90;;;;;;4990054;28;20237;-56
2022/09/25 13:07:14;;;;;;;6.33;1.03;;;16.60;99.90;;;;;;4987661;28;20650;-56
2022/09/25 13:09:44;;;;;;;4.83;1.33;;;16.70;99.90;;;;;;4990336;28;20624;-55
2022/09/25 13:12:25;;;;;;;3.90;0.80;;;16.80;99.90;;;;;;4991798;28;20222;-56
2022/09/25 13:14:59;;;;;;;5.20;1.10;;;16.80;99.90;;;;;;4990089;28;20238;-55
2022/09/25 13:17:31;;;;;;;4.33;1.10;;;16.70;99.90;;;;;;4989183;28;20210;-55
2022/09/25 13:20:30;;;;;;;4.37;1.03;;;16.60;99.90;;;;;;4990928;28;20230;-56
2022/09/25 13:23:02;;;;;;;7.77;1.40;;;16.70;99.90;;;;;;4986180;28;20248;-56
2022/09/25 13:25:40;;;;;;;4.80;1.00;;;16.80;99.90;;;;;;4987710;28;20626;-55
2022/09/25 13:28:15;;;;;;;5.20;0.90;;;16.70;99.90;;;;;;4989401;28;20238;-56
2022/09/25 13:30:59;;;;;;;1.43;0.83;;;16.70;99.90;;;;;;4987059;28;20244;-55
2022/09/25 13:33:41;;;;;;;2.33;0.70;;;16.60;99.90;;;;;;5004021;28;20222;-56
2022/09/25 13:36:15;;;;;;;3.63;0.70;;;16.60;99.90;;;;;;4992877;28;20764;-56
2022/09/25 13:41:32;;;;;;;2.27;0.77;;;16.30;99.90;;;;;;4995724;28;20281;-55